Time;durP1;ratioP1;P1;durP2;ratioP2;P2;SDS_P1;SDS_P2;PMS_P1;PMS_P2;Temp;Humidity;BMP_temperature;BMP_pressure;BME280_temperature;BME280_humidity;BME280_pressure;Samples;Min_cycle;Max_cycle;Signal;HPM_P1;HPM_P2
2023/01/21 00:00:58;;;;;;;18.08;12.32;;;4.00;99.90;;;;;;5036647;28;20181;-71
2023/01/21 00:03:24;;;;;;;21.03;12.40;;;4.00;99.90;;;;;;5019669;28;20183;-71
2023/01/21 00:05:50;;;;;;;20.37;12.30;;;4.00;99.90;;;;;;5054993;28;20438;-71
2023/01/21 00:08:16;;;;;;;19.45;12.50;;;4.00;99.90;;;;;;5053738;28;20473;-71
2023/01/21 00:10:45;;;;;;;21.88;13.20;;;4.00;99.90;;;;;;5021571;28;20229;-71
2023/01/21 00:13:14;;;;;;;19.63;13.15;;;4.00;99.90;;;;;;5038307;28;20203;-71
2023/01/21 00:15:42;;;;;;;18.52;13.07;;;4.00;99.90;;;;;;5055785;28;20245;-71
2023/01/21 00:18:08;;;;;;;21.00;13.35;;;4.00;99.90;;;;;;5037642;28;20177;-71
2023/01/21 00:20:34;;;;;;;18.33;11.47;;;4.00;99.90;;;;;;5055656;28;20171;-71
2023/01/21 00:23:00;;;;;;;21.45;13.77;;;4.00;99.90;;;;;;5037911;28;20419;-71
2023/01/21 00:25:26;;;;;;;20.23;13.80;;;3.90;99.90;;;;;;5055207;28;20279;-71
2023/01/21 00:27:52;;;;;;;19.83;13.07;;;4.00;99.90;;;;;;5055290;28;20492;-71
2023/01/21 00:30:18;;;;;;;19.60;12.48;;;3.90;99.90;;;;;;5037599;28;20407;-71
2023/01/21 00:32:44;;;;;;;18.73;13.18;;;3.90;99.90;;;;;;5037705;28;20581;-71
2023/01/21 00:35:10;;;;;;;20.13;13.90;;;3.90;99.90;;;;;;5020998;28;20287;-71
2023/01/21 00:37:36;;;;;;;22.75;13.70;;;3.90;99.90;;;;;;5021076;28;20418;-71
2023/01/21 00:40:05;;;;;;;18.45;12.38;;;3.90;99.90;;;;;;5020982;28;20188;-71
2023/01/21 00:42:34;;;;;;;21.67;13.88;;;3.90;99.90;;;;;;5020927;28;20226;-71
2023/01/21 00:45:00;;;;;;;23.13;13.68;;;3.90;99.90;;;;;;5020868;28;20575;-71
2023/01/21 00:47:26;;;;;;;23.90;15.00;;;3.90;99.90;;;;;;5037308;28;20168;-71
2023/01/21 00:49:54;;;;;;;22.55;14.63;;;3.90;99.90;;;;;;5020825;28;20172;-71
2023/01/21 00:52:20;;;;;;;24.57;13.57;;;3.90;99.90;;;;;;5037218;28;20640;-71
2023/01/21 00:54:46;;;;;;;25.27;13.87;;;3.90;99.90;;;;;;5054778;28;20518;-71
2023/01/21 00:57:15;;;;;;;20.63;14.30;;;3.90;99.90;;;;;;5036713;28;20446;-71
2023/01/21 00:59:41;;;;;;;19.40;13.30;;;3.90;99.90;;;;;;5036176;28;20904;-71
2023/01/21 01:02:09;;;;;;;22.15;14.20;;;3.90;99.90;;;;;;5020580;28;20567;-73
2023/01/21 01:04:38;;;;;;;19.83;13.70;;;3.90;99.90;;;;;;5054830;28;20208;-75
2023/01/21 01:07:04;;;;;;;22.30;13.32;;;3.90;99.90;;;;;;5020534;28;20223;-70
2023/01/21 01:09:30;;;;;;;20.03;14.07;;;3.90;99.90;;;;;;5019910;28;20212;-71
2023/01/21 01:11:56;;;;;;;19.63;13.88;;;3.80;99.90;;;;;;5054161;28;20411;-72
2023/01/21 01:14:23;;;;;;;20.88;14.30;;;3.80;99.90;;;;;;5036642;28;20207;-72
2023/01/21 01:16:53;;;;;;;22.10;13.32;;;3.80;99.90;;;;;;5036595;28;20180;-72
2023/01/21 01:19:19;;;;;;;20.63;13.63;;;3.80;99.90;;;;;;5036634;28;20195;-72
2023/01/21 01:21:45;;;;;;;21.23;14.20;;;3.80;99.90;;;;;;5019995;28;20212;-71
2023/01/21 01:24:11;;;;;;;21.67;14.77;;;3.80;99.90;;;;;;5054155;28;20442;-72
2023/01/21 01:26:40;;;;;;;22.80;14.83;;;3.80;99.90;;;;;;5054129;28;20160;-71
2023/01/21 01:29:14;;;;;;;20.00;13.70;;;3.80;99.90;;;;;;5052687;28;20718;-71
2023/01/21 01:31:43;;;;;;;28.08;14.90;;;3.80;99.90;;;;;;5054095;28;20591;-72
2023/01/21 01:34:14;;;;;;;20.67;13.68;;;3.80;99.90;;;;;;5052741;28;20196;-72
2023/01/21 01:36:40;;;;;;;19.25;12.98;;;3.80;99.90;;;;;;5053955;28;20160;-73
2023/01/21 01:39:06;;;;;;;24.00;15.83;;;3.80;99.90;;;;;;5036107;28;20239;-72
2023/01/21 01:41:35;;;;;;;21.70;14.30;;;3.80;99.90;;;;;;5019817;28;20412;-72
2023/01/21 01:44:26;;;;;;;23.67;14.90;;;3.80;99.90;;;;;;5052629;28;20664;-72
2023/01/21 01:46:56;;;;;;;23.27;14.25;;;3.80;99.90;;;;;;5053549;28;20207;-72
2023/01/21 01:49:25;;;;;;;25.48;14.85;;;3.80;99.90;;;;;;5019387;28;20246;-72
2023/01/21 01:51:57;;;;;;;18.75;12.95;;;3.70;99.90;;;;;;5053784;28;20512;-72
2023/01/21 01:54:29;;;;;;;23.48;13.68;;;3.70;99.90;;;;;;5053604;28;20196;-72
2023/01/21 01:57:01;;;;;;;24.85;14.15;;;3.70;99.90;;;;;;5036138;28;20183;-72
2023/01/21 01:59:29;;;;;;;25.67;15.75;;;3.70;99.90;;;;;;5035849;28;20231;-72
2023/01/21 02:02:04;;;;;;;23.35;14.48;;;3.70;99.90;;;;;;5035714;28;20160;-72
2023/01/21 02:04:37;;;;;;;22.42;14.40;;;3.70;99.90;;;;;;5053348;28;20192;-72
2023/01/21 02:07:06;;;;;;;22.80;14.32;;;3.70;99.90;;;;;;5052349;28;20172;-72
2023/01/21 02:09:34;;;;;;;22.13;14.50;;;3.70;99.90;;;;;;5052203;28;20556;-72
2023/01/21 02:12:03;;;;;;;23.00;15.30;;;3.70;99.90;;;;;;5035752;28;20188;-72
2023/01/21 02:14:41;;;;;;;22.58;13.50;;;3.70;99.90;;;;;;5070178;23;20238;-71
2023/01/21 02:17:26;;;;;;;22.13;14.57;;;3.70;99.90;;;;;;5013371;28;20201;-71
2023/01/21 02:20:20;;;;;;;21.10;14.38;;;3.70;99.90;;;;;;4995944;28;20196;-71
2023/01/21 02:22:56;;;;;;;23.20;13.73;;;3.70;99.90;;;;;;5012449;28;20170;-72
2023/01/21 02:25:43;;;;;;;22.70;15.55;;;3.70;99.90;;;;;;4995210;28;20205;-72
2023/01/21 02:28:51;;;;;;;23.10;14.50;;;3.70;99.90;;;;;;4995956;28;20206;-72
2023/01/21 02:31:25;;;;;;;23.40;15.18;;;3.70;99.90;;;;;;4982470;28;20250;-72
2023/01/21 02:34:24;;;;;;;24.17;15.52;;;3.60;99.90;;;;;;4980010;28;20181;-72
2023/01/21 02:36:50;;;;;;;23.40;15.02;;;3.60;99.90;;;;;;5012332;28;20213;-72
2023/01/21 02:39:22;;;;;;;25.00;14.48;;;3.60;99.90;;;;;;5012375;28;20188;-72
2023/01/21 02:42:29;;;;;;;23.05;15.00;;;3.60;99.90;;;;;;5011942;28;20193;-72
2023/01/21 02:45:14;;;;;;;25.00;14.93;;;3.60;99.90;;;;;;5012095;28;20205;-72
2023/01/21 02:47:46;;;;;;;23.13;15.23;;;3.60;99.90;;;;;;5013659;28;20313;-72
2023/01/21 02:50:27;;;;;;;29.63;17.60;;;3.60;99.90;;;;;;5012023;28;20216;-72
2023/01/21 02:53:01;;;;;;;25.00;15.10;;;3.60;99.90;;;;;;5013186;28;20168;-72
2023/01/21 02:55:37;;;;;;;24.27;15.27;;;3.60;99.90;;;;;;4995600;28;20208;-72
2023/01/21 02:58:09;;;;;;;24.33;15.75;;;3.60;99.90;;;;;;4995910;28;20563;-72
2023/01/21 03:01:04;;;;;;;25.70;15.77;;;3.60;99.90;;;;;;5013203;28;20177;-72
2023/01/21 03:03:55;;;;;;;26.02;15.48;;;3.60;99.90;;;;;;5011938;28;20264;-72
2023/01/21 03:07:02;;;;;;;22.13;15.75;;;3.60;99.90;;;;;;5012997;28;20170;-72
2023/01/21 03:09:32;;;;;;;22.65;14.80;;;3.50;99.90;;;;;;4987625;28;20710;-72
2023/01/21 03:12:18;;;;;;;23.52;16.02;;;3.50;99.90;;;;;;4995540;28;20185;-72
2023/01/21 03:17:46;;;;;;;23.38;14.82;;;3.50;99.90;;;;;;4975876;28;20227;-71
2023/01/21 03:20:21;;;;;;;23.85;16.20;;;3.50;99.90;;;;;;4991487;28;20185;-72
2023/01/21 03:22:56;;;;;;;22.40;14.70;;;3.50;99.90;;;;;;4960821;28;20174;-72
2023/01/21 03:25:23;;;;;;;24.45;15.80;;;3.50;99.90;;;;;;4994886;28;20567;-72
2023/01/21 03:27:52;;;;;;;27.35;15.85;;;3.50;99.90;;;;;;5014840;28;20189;-72
2023/01/21 03:30:22;;;;;;;22.23;14.35;;;3.50;99.90;;;;;;4998604;28;20184;-72
2023/01/21 03:32:55;;;;;;;23.75;15.20;;;3.50;99.90;;;;;;5014397;28;20181;-71
2023/01/21 03:35:28;;;;;;;24.80;15.13;;;3.50;99.90;;;;;;5018762;28;20212;-71
2023/01/21 03:38:12;;;;;;;21.02;15.35;;;3.50;99.90;;;;;;5035509;28;20228;-71
2023/01/21 03:40:45;;;;;;;25.60;15.27;;;3.50;99.90;;;;;;5018517;28;20227;-71
2023/01/21 03:43:11;;;;;;;26.50;15.90;;;3.50;99.90;;;;;;5018307;28;20222;-71
2023/01/21 03:46:13;;;;;;;25.33;15.23;;;3.50;99.90;;;;;;5035053;28;20670;-72
2023/01/21 03:49:18;;;;;;;24.13;14.75;;;3.50;99.90;;;;;;5017461;28;20476;-72
2023/01/21 03:51:55;;;;;;;25.20;16.20;;;3.50;99.90;;;;;;5002093;28;20209;-72
2023/01/21 03:54:24;;;;;;;22.17;14.10;;;3.40;99.90;;;;;;5015047;28;20258;-72
2023/01/21 03:56:50;;;;;;;25.38;15.82;;;3.40;99.90;;;;;;5016159;28;20683;-72
2023/01/21 03:59:16;;;;;;;23.60;15.15;;;3.40;99.90;;;;;;4998821;28;20185;-72
2023/01/21 04:01:45;;;;;;;21.80;14.57;;;3.40;99.90;;;;;;4998681;28;20620;-72
2023/01/21 04:04:13;;;;;;;21.95;14.55;;;3.40;99.90;;;;;;5014839;28;20476;-72
2023/01/21 04:06:42;;;;;;;23.20;14.60;;;3.40;99.90;;;;;;4966262;28;20205;-72
2023/01/21 04:09:11;;;;;;;27.52;17.33;;;3.40;99.90;;;;;;4982418;28;20469;-72
2023/01/21 04:11:39;;;;;;;24.23;14.95;;;3.40;99.90;;;;;;4982525;28;20646;-72
2023/01/21 04:14:05;;;;;;;23.50;15.70;;;3.40;99.90;;;;;;4998152;28;20217;-72
2023/01/21 04:16:34;;;;;;;23.50;15.27;;;3.40;99.90;;;;;;4998268;28;20906;-72
2023/01/21 04:19:00;;;;;;;23.30;15.85;;;3.40;99.90;;;;;;4981170;28;20170;-72
2023/01/21 04:21:31;;;;;;;22.67;14.35;;;3.40;99.90;;;;;;4982400;28;20189;-72
2023/01/21 04:24:00;;;;;;;23.13;14.93;;;3.40;99.90;;;;;;4998050;28;20247;-72
2023/01/21 04:26:28;;;;;;;21.50;14.50;;;3.40;99.90;;;;;;4981878;28;20186;-71
2023/01/21 04:28:56;;;;;;;21.42;14.63;;;3.40;99.90;;;;;;5015347;28;20500;-71
2023/01/21 04:31:22;;;;;;;23.27;14.13;;;3.40;99.90;;;;;;4998102;28;20209;-72
2023/01/21 04:33:48;;;;;;;25.70;15.13;;;3.40;99.90;;;;;;4997994;28;20511;-72
2023/01/21 04:36:16;;;;;;;24.75;16.15;;;3.30;99.90;;;;;;5013859;28;20432;-72
2023/01/21 04:38:42;;;;;;;27.53;16.67;;;3.30;99.90;;;;;;4998089;28;20216;-71
2023/01/21 04:41:08;;;;;;;24.73;14.80;;;3.30;99.90;;;;;;5015109;28;20460;-72
2023/01/21 04:43:34;;;;;;;26.23;15.75;;;3.30;99.90;;;;;;4997872;28;20436;-72
2023/01/21 04:46:00;;;;;;;26.53;16.43;;;3.30;99.90;;;;;;5013050;28;20209;-72
2023/01/21 04:48:26;;;;;;;29.50;16.77;;;3.30;99.90;;;;;;5015109;28;20497;-72
2023/01/21 04:50:54;;;;;;;24.37;15.77;;;3.30;99.90;;;;;;5015038;28;20253;-71
2023/01/21 04:53:23;;;;;;;25.42;15.95;;;3.30;99.90;;;;;;5033215;28;20404;-71
2023/01/21 04:55:51;;;;;;;23.00;15.55;;;3.30;99.90;;;;;;5016787;28;20259;-71
2023/01/21 04:58:18;;;;;;;22.77;15.45;;;3.30;99.90;;;;;;5017245;28;20740;-71
2023/01/21 05:00:47;;;;;;;23.20;14.93;;;3.30;99.90;;;;;;5017600;28;20674;-71
2023/01/21 05:03:13;;;;;;;25.37;16.37;;;3.30;99.90;;;;;;5016802;28;20291;-71
2023/01/21 05:05:41;;;;;;;24.35;15.13;;;3.30;99.90;;;;;;5016934;28;20432;-71
2023/01/21 05:08:07;;;;;;;26.42;16.10;;;3.30;99.90;;;;;;5016993;28;20243;-72
2023/01/21 05:10:35;;;;;;;25.73;15.18;;;3.30;99.90;;;;;;5000891;28;20630;-72
2023/01/21 05:13:01;;;;;;;28.53;15.73;;;3.30;99.90;;;;;;5000599;28;20169;-72
2023/01/21 05:15:30;;;;;;;27.35;17.83;;;3.30;99.90;;;;;;5016846;28;20835;-72
2023/01/21 05:17:57;;;;;;;22.65;15.25;;;3.30;99.90;;;;;;5016756;28;20183;-72
2023/01/21 05:20:23;;;;;;;26.58;16.80;;;3.30;99.90;;;;;;5016612;28;20223;-72
2023/01/21 05:22:49;;;;;;;24.73;15.15;;;3.30;99.90;;;;;;5000456;28;20181;-72
2023/01/21 05:25:20;;;;;;;25.27;15.40;;;3.30;99.90;;;;;;4976837;28;20212;-72
2023/01/21 05:27:53;;;;;;;25.00;14.23;;;3.30;99.90;;;;;;4996942;28;20464;-72
2023/01/21 05:30:19;;;;;;;22.75;15.48;;;3.20;99.90;;;;;;5014332;28;20154;-72
2023/01/21 05:32:53;;;;;;;26.27;15.95;;;3.20;99.90;;;;;;5014292;28;20685;-72
2023/01/21 05:35:23;;;;;;;25.15;15.48;;;3.20;99.90;;;;;;5018520;28;20243;-72
2023/01/21 05:37:51;;;;;;;23.75;15.60;;;3.20;99.90;;;;;;5033802;28;20534;-72
2023/01/21 05:40:20;;;;;;;22.17;14.60;;;3.20;99.90;;;;;;5016541;28;20169;-72
2023/01/21 05:42:48;;;;;;;26.50;15.70;;;3.20;99.90;;;;;;5016600;28;20173;-72
2023/01/21 05:45:14;;;;;;;26.30;15.93;;;3.20;99.90;;;;;;5033783;28;20200;-72
2023/01/21 05:47:40;;;;;;;25.30;15.75;;;3.20;99.90;;;;;;5033760;28;20164;-72
2023/01/21 05:50:09;;;;;;;27.15;16.08;;;3.20;99.90;;;;;;5016743;28;20169;-73
2023/01/21 05:52:39;;;;;;;24.20;15.40;;;3.20;99.90;;;;;;5016335;28;20303;-72
2023/01/21 05:55:08;;;;;;;27.88;16.83;;;3.20;99.90;;;;;;5010527;28;20233;-72
2023/01/21 05:57:36;;;;;;;23.95;15.70;;;3.20;99.90;;;;;;5012944;28;20170;-72
2023/01/21 06:00:05;;;;;;;23.73;14.90;;;3.20;99.90;;;;;;5019380;28;20161;-71
2023/01/21 06:02:32;;;;;;;23.55;14.93;;;3.20;99.90;;;;;;5033374;28;20279;-71
2023/01/21 06:04:58;;;;;;;23.60;16.48;;;3.20;99.90;;;;;;5033609;28;20196;-71
2023/01/21 06:07:24;;;;;;;27.07;15.80;;;3.20;99.90;;;;;;4999596;28;20180;-72
2023/01/21 06:09:50;;;;;;;26.77;15.85;;;3.20;99.90;;;;;;4999081;28;20562;-72
2023/01/21 06:12:19;;;;;;;23.40;15.60;;;3.10;99.90;;;;;;5015942;28;20158;-72
2023/01/21 06:14:47;;;;;;;24.60;16.40;;;3.20;99.90;;;;;;4999149;28;20208;-72
2023/01/21 06:17:17;;;;;;;24.67;16.80;;;3.10;99.90;;;;;;5015737;28;20917;-72
2023/01/21 06:19:44;;;;;;;26.30;15.27;;;3.10;99.90;;;;;;5033199;28;20268;-72
2023/01/21 06:22:16;;;;;;;26.73;15.63;;;3.10;99.90;;;;;;5033325;28;20180;-72
2023/01/21 06:24:42;;;;;;;28.73;16.90;;;3.10;99.90;;;;;;5032417;28;20459;-71
2023/01/21 06:27:08;;;;;;;27.50;14.97;;;3.10;99.90;;;;;;5033269;28;20207;-72
2023/01/21 06:29:33;;;;;;;25.73;15.93;;;3.10;99.90;;;;;;5015514;28;20516;-72
2023/01/21 06:32:00;;;;;;;23.97;15.43;;;3.10;99.90;;;;;;5015496;28;20181;-72
2023/01/21 06:34:26;;;;;;;23.83;15.65;;;3.10;99.90;;;;;;5033094;28;20239;-72
2023/01/21 06:36:54;;;;;;;27.02;16.50;;;3.10;99.90;;;;;;5000280;28;20213;-72
2023/01/21 06:39:22;;;;;;;27.05;16.60;;;3.10;99.90;;;;;;5016497;28;20181;-72
2023/01/21 06:41:48;;;;;;;26.97;16.87;;;3.10;99.90;;;;;;5013202;28;20656;-72
2023/01/21 06:44:14;;;;;;;22.92;15.70;;;3.10;99.90;;;;;;4996045;28;20464;-72
2023/01/21 06:46:40;;;;;;;23.60;15.70;;;3.10;99.90;;;;;;5013359;28;20584;-72
2023/01/21 06:49:11;;;;;;;27.45;15.40;;;3.10;99.90;;;;;;4995984;28;20452;-72
2023/01/21 06:51:37;;;;;;;23.37;16.43;;;3.10;99.90;;;;;;4995736;28;20246;-72
2023/01/21 06:54:03;;;;;;;24.27;14.93;;;3.10;99.90;;;;;;5013209;28;20852;-72
2023/01/21 06:56:31;;;;;;;26.73;16.05;;;3.10;99.90;;;;;;5013197;28;20190;-72
2023/01/21 06:58:57;;;;;;;23.98;15.98;;;3.10;99.90;;;;;;5013098;28;20209;-72
2023/01/21 07:01:23;;;;;;;26.33;16.23;;;3.10;99.90;;;;;;5027058;28;20235;-72
2023/01/21 07:03:52;;;;;;;29.25;16.00;;;3.10;99.90;;;;;;5014983;28;20975;-72
2023/01/21 07:06:17;;;;;;;26.52;16.73;;;3.00;99.90;;;;;;4991600;28;20573;-72
2023/01/21 07:08:43;;;;;;;27.93;16.03;;;3.00;99.90;;;;;;5029700;28;20251;-72
2023/01/21 07:11:09;;;;;;;24.37;15.17;;;3.00;99.90;;;;;;5021498;28;20566;-72
2023/01/21 07:13:38;;;;;;;26.35;15.48;;;3.00;99.90;;;;;;5018297;28;20474;-76
2023/01/21 07:16:04;;;;;;;26.58;15.93;;;3.00;99.90;;;;;;5018619;28;20221;-72
2023/01/21 07:18:33;;;;;;;25.48;16.48;;;3.00;99.90;;;;;;4999777;28;20194;-71
2023/01/21 07:21:01;;;;;;;23.70;16.08;;;3.00;99.90;;;;;;5016812;28;20642;-72
2023/01/21 07:23:29;;;;;;;26.23;17.20;;;3.00;99.90;;;;;;4999355;28;20171;-72
2023/01/21 07:25:55;;;;;;;26.08;16.27;;;3.00;99.90;;;;;;5013381;28;20937;-72
2023/01/21 07:28:23;;;;;;;24.50;16.20;;;3.00;99.90;;;;;;5012345;28;20201;-72
2023/01/21 07:30:49;;;;;;;28.35;17.58;;;3.00;99.90;;;;;;5015602;28;20428;-72
2023/01/21 07:33:18;;;;;;;26.63;16.40;;;3.00;99.90;;;;;;5015853;28;20288;-72
2023/01/21 07:35:46;;;;;;;26.00;15.50;;;3.00;99.90;;;;;;5016202;28;20428;-72
2023/01/21 07:38:12;;;;;;;27.40;16.80;;;3.00;99.90;;;;;;5015350;28;20745;-72
2023/01/21 07:40:38;;;;;;;25.90;16.15;;;3.00;99.90;;;;;;5016530;28;20404;-72
2023/01/21 07:43:04;;;;;;;28.93;16.50;;;2.90;99.90;;;;;;5016497;28;20166;-72
2023/01/21 07:45:34;;;;;;;24.50;16.80;;;3.00;99.90;;;;;;4993623;28;20213;-71
2023/01/21 07:48:02;;;;;;;24.10;16.25;;;3.00;99.90;;;;;;5018600;28;20579;-72
2023/01/21 07:50:31;;;;;;;23.48;15.63;;;2.90;99.90;;;;;;5017531;28;20211;-72
2023/01/21 07:53:01;;;;;;;25.25;16.00;;;2.90;99.90;;;;;;5015196;28;20182;-72
2023/01/21 07:55:28;;;;;;;29.92;18.60;;;2.90;99.90;;;;;;5017904;28;20270;-72
2023/01/21 07:57:58;;;;;;;25.80;16.52;;;2.90;99.90;;;;;;5033780;28;20188;-72
2023/01/21 08:00:28;;;;;;;24.88;16.35;;;2.90;99.90;;;;;;5034363;28;20157;-72
2023/01/21 08:02:57;;;;;;;24.85;15.77;;;2.90;99.90;;;;;;5018240;28;20184;-72
2023/01/21 08:05:26;;;;;;;23.88;15.98;;;2.90;99.90;;;;;;5018207;28;20205;-72
2023/01/21 08:07:55;;;;;;;23.58;16.20;;;2.90;99.90;;;;;;5035534;28;20283;-72
2023/01/21 08:10:24;;;;;;;26.13;17.10;;;2.90;99.90;;;;;;5001863;28;20184;-72
2023/01/21 08:12:50;;;;;;;24.02;15.25;;;2.90;99.90;;;;;;5035089;28;20216;-72
2023/01/21 08:15:16;;;;;;;24.83;15.97;;;2.90;99.90;;;;;;5016948;28;20747;-72
2023/01/21 08:17:43;;;;;;;25.10;15.45;;;2.90;99.90;;;;;;5001665;28;20425;-72
2023/01/21 08:20:13;;;;;;;26.60;16.33;;;2.90;99.90;;;;;;4995958;28;20571;-72
2023/01/21 08:22:44;;;;;;;27.88;16.65;;;2.90;99.90;;;;;;4997655;28;20158;-73
2023/01/21 08:25:10;;;;;;;27.00;16.65;;;2.90;99.90;;;;;;5005014;28;20276;-72
2023/01/21 08:27:36;;;;;;;22.52;14.95;;;2.90;99.90;;;;;;5017001;28;20739;-72
2023/01/21 08:30:03;;;;;;;27.30;17.35;;;2.90;99.90;;;;;;5034117;28;20158;-72
2023/01/21 08:32:30;;;;;;;22.85;16.02;;;2.90;99.90;;;;;;4998444;28;20176;-72
2023/01/21 08:34:59;;;;;;;27.35;16.85;;;2.80;99.90;;;;;;5034000;28;20193;-72
2023/01/21 08:37:27;;;;;;;30.33;16.75;;;2.90;99.90;;;;;;5016136;28;20189;-72
2023/01/21 08:39:53;;;;;;;26.92;17.23;;;2.90;99.90;;;;;;5032783;28;20172;-77
2023/01/21 08:42:22;;;;;;;34.77;18.03;;;2.90;99.90;;;;;;5016453;28;20169;-76
2023/01/21 08:44:50;;;;;;;25.48;16.55;;;2.80;99.90;;;;;;4999614;28;20812;-73
2023/01/21 08:47:17;;;;;;;27.88;16.73;;;2.80;99.90;;;;;;5034038;28;20626;-72
2023/01/21 08:49:44;;;;;;;29.80;18.15;;;2.80;99.90;;;;;;4999740;28;20211;-72
2023/01/21 08:52:10;;;;;;;26.02;17.60;;;2.80;99.90;;;;;;4999704;28;20172;-72
2023/01/21 08:54:36;;;;;;;31.90;17.05;;;2.80;99.90;;;;;;5031478;28;20195;-72
2023/01/21 08:57:02;;;;;;;31.20;17.87;;;2.80;99.90;;;;;;4996743;28;20285;-73
2023/01/21 08:59:30;;;;;;;29.80;18.52;;;2.80;99.90;;;;;;4979673;28;20447;-72
2023/01/21 09:01:58;;;;;;;28.77;17.55;;;2.80;99.90;;;;;;5013979;28;20166;-72
2023/01/21 09:04:24;;;;;;;29.00;17.83;;;2.80;99.90;;;;;;4996431;28;20212;-72
2023/01/21 09:06:50;;;;;;;25.00;16.97;;;2.80;99.90;;;;;;4996497;28;20615;-72
2023/01/21 09:09:21;;;;;;;27.55;17.92;;;2.80;99.90;;;;;;5028070;28;20459;-72
2023/01/21 09:11:54;;;;;;;29.08;17.70;;;2.80;99.90;;;;;;5012013;28;20161;-72
2023/01/21 09:14:20;;;;;;;30.73;17.23;;;2.90;99.90;;;;;;5012126;28;20262;-71
2023/01/21 09:16:50;;;;;;;29.80;17.70;;;2.80;99.90;;;;;;4995099;28;20173;-72
2023/01/21 09:19:16;;;;;;;26.33;16.88;;;2.80;99.90;;;;;;4995153;28;20424;-72
2023/01/21 09:21:42;;;;;;;29.77;17.92;;;2.80;99.90;;;;;;4995425;28;20174;-72
2023/01/21 09:24:11;;;;;;;27.52;15.90;;;2.90;99.90;;;;;;4998773;28;20204;-72
2023/01/21 09:26:45;;;;;;;29.65;18.58;;;2.90;99.90;;;;;;5015802;28;20177;-72
2023/01/21 09:29:11;;;;;;;27.83;16.98;;;2.90;99.90;;;;;;5015344;28;20281;-72
2023/01/21 09:31:37;;;;;;;28.08;16.95;;;2.90;99.90;;;;;;5031581;28;20204;-72
2023/01/21 09:34:04;;;;;;;31.23;18.65;;;2.80;99.90;;;;;;5012146;28;20243;-72
2023/01/21 09:36:33;;;;;;;29.33;17.65;;;2.80;99.90;;;;;;5026059;28;20220;-72
2023/01/21 09:38:59;;;;;;;26.00;16.90;;;2.90;99.90;;;;;;4978409;28;20174;-72
2023/01/21 09:41:37;;;;;;;30.23;16.88;;;2.90;99.90;;;;;;5010489;28;20254;-72
2023/01/21 09:44:17;;;;;;;28.48;17.45;;;2.90;99.90;;;;;;5010768;28;20216;-71
2023/01/21 09:47:04;;;;;;;25.60;17.30;;;2.90;99.90;;;;;;4994656;28;20177;-71
2023/01/21 09:49:40;;;;;;;27.38;15.85;;;2.90;99.90;;;;;;5012466;28;20742;-73
2023/01/21 09:52:28;;;;;;;29.60;16.63;;;2.90;99.90;;;;;;4994628;28;20201;-71
2023/01/21 09:54:56;;;;;;;29.77;18.55;;;2.90;99.90;;;;;;4978848;28;20202;-73
2023/01/21 09:57:36;;;;;;;27.02;16.75;;;2.90;99.90;;;;;;4989877;28;20197;-76
2023/01/21 10:00:30;;;;;;;32.22;18.60;;;2.90;99.90;;;;;;4994904;28;20196;-72
2023/01/21 10:03:17;;;;;;;31.08;18.77;;;2.90;99.90;;;;;;5012311;28;20201;-72
2023/01/21 10:05:51;;;;;;;31.65;18.25;;;2.90;99.90;;;;;;4994524;28;20259;-76
2023/01/21 10:08:35;;;;;;;33.55;17.77;;;2.90;99.90;;;;;;4993525;28;20243;-74
2023/01/21 10:11:25;;;;;;;28.35;17.02;;;2.90;99.90;;;;;;5010716;28;20623;-72
2023/01/21 10:14:12;;;;;;;26.95;16.98;;;2.90;99.90;;;;;;5012484;28;20241;-72
2023/01/21 10:16:51;;;;;;;29.65;18.05;;;2.90;99.90;;;;;;4995336;28;20189;-70
2023/01/21 10:19:32;;;;;;;30.42;17.10;;;2.80;99.90;;;;;;4978313;28;20221;-72
2023/01/21 10:25:04;;;;;;;35.05;18.70;;;2.80;99.90;;;;;;4962435;28;20234;-71
2023/01/21 10:27:37;;;;;;;27.50;16.63;;;2.80;99.90;;;;;;4955082;28;20194;-74
2023/01/21 10:30:21;;;;;;;28.60;16.90;;;2.80;99.90;;;;;;4971542;28;20210;-73
2023/01/21 10:32:55;;;;;;;31.90;18.15;;;2.80;99.90;;;;;;4957824;28;20277;-76
2023/01/21 10:35:45;;;;;;;28.88;15.85;;;2.80;99.90;;;;;;4975290;28;20236;-77
2023/01/21 10:38:30;;;;;;;28.88;17.00;;;2.80;99.90;;;;;;4960872;28;20183;-78
2023/01/21 10:41:18;;;;;;;27.52;16.98;;;2.80;99.90;;;;;;4977512;28;20203;-79
2023/01/21 10:44:00;;;;;;;30.25;17.83;;;2.80;99.90;;;;;;4973827;28;20163;-77
2023/01/21 10:47:09;;;;;;;28.38;17.08;;;2.80;99.90;;;;;;4963802;28;20554;-77
2023/01/21 10:49:48;;;;;;;30.40;18.10;;;2.80;99.90;;;;;;4900504;29;20215;-78
2023/01/21 10:52:56;;;;;;;28.77;16.42;;;2.80;99.90;;;;;;4947746;29;20207;-77
2023/01/21 10:56:01;;;;;;;28.40;16.35;;;2.80;99.90;;;;;;4955805;28;20214;-77
2023/01/21 10:58:40;;;;;;;31.50;16.73;;;2.80;99.90;;;;;;4973667;28;20686;-77
2023/01/21 11:01:26;;;;;;;27.48;17.58;;;2.80;99.90;;;;;;4988518;28;20545;-78
2023/01/21 11:03:57;;;;;;;30.02;17.42;;;2.80;99.90;;;;;;4971178;28;20171;-78
2023/01/21 11:06:24;;;;;;;27.65;16.35;;;2.80;99.90;;;;;;4973379;28;20186;-78
2023/01/21 11:08:59;;;;;;;29.50;17.25;;;2.80;99.90;;;;;;4970994;28;20199;-77
2023/01/21 11:11:36;;;;;;;30.05;16.80;;;2.80;99.90;;;;;;4957577;28;20277;-77
2023/01/21 11:14:04;;;;;;;31.77;17.25;;;2.80;99.90;;;;;;4956541;28;20785;-78
2023/01/21 11:16:33;;;;;;;36.27;19.30;;;2.80;99.90;;;;;;4991935;28;20218;-77
2023/01/21 11:19:04;;;;;;;38.95;20.38;;;2.80;99.90;;;;;;4951554;28;20466;-77
2023/01/21 11:21:35;;;;;;;39.60;21.27;;;2.80;99.90;;;;;;4975641;28;20174;-78
2023/01/21 11:24:20;;;;;;;37.92;21.42;;;2.80;99.90;;;;;;4966396;28;20233;-78
2023/01/21 11:26:56;;;;;;;32.75;19.55;;;2.80;99.90;;;;;;4954663;28;20239;-76
2023/01/21 11:29:26;;;;;;;36.58;21.55;;;2.80;99.90;;;;;;4975463;28;20610;-76
2023/01/21 11:32:23;;;;;;;35.25;19.77;;;2.80;99.90;;;;;;4975678;28;20521;-78
2023/01/21 11:34:57;;;;;;;43.78;24.33;;;2.80;99.90;;;;;;4956505;29;20699;-80
2023/01/21 11:37:28;;;;;;;38.53;21.80;;;2.90;99.90;;;;;;4961567;28;20991;-78
2023/01/21 11:40:07;;;;;;;36.53;21.10;;;2.90;99.90;;;;;;4964859;29;20180;-79
2023/01/21 11:42:58;;;;;;;37.42;20.33;;;2.90;99.90;;;;;;4973381;28;20262;-80
2023/01/21 11:45:37;;;;;;;39.95;20.13;;;2.90;99.90;;;;;;4967856;28;20204;-79
2023/01/21 11:48:34;;;;;;;30.98;18.35;;;2.90;99.90;;;;;;4963418;28;20221;-79
2023/01/21 11:51:09;;;;;;;33.58;19.15;;;2.90;99.90;;;;;;4955284;28;20265;-78
2023/01/21 11:53:37;;;;;;;34.97;19.55;;;2.90;99.90;;;;;;4973951;28;20178;-75
2023/01/21 11:56:05;;;;;;;36.55;19.95;;;2.90;99.90;;;;;;4957658;28;20203;-74
2023/01/21 11:58:34;;;;;;;34.42;19.45;;;2.90;99.90;;;;;;4956518;28;20190;-73
2023/01/21 12:01:03;;;;;;;33.63;18.85;;;2.90;99.90;;;;;;4972808;28;20257;-73
2023/01/21 12:03:44;;;;;;;31.95;17.85;;;2.90;99.90;;;;;;4956626;29;20178;-74
2023/01/21 12:06:24;;;;;;;32.72;18.20;;;2.90;99.90;;;;;;4957488;29;20175;-73
2023/01/21 12:09:01;;;;;;;34.85;18.75;;;3.00;99.90;;;;;;4956489;28;20223;-73
2023/01/21 12:11:29;;;;;;;32.47;19.00;;;3.00;99.90;;;;;;4972591;28;20168;-76
2023/01/21 12:14:34;;;;;;;32.20;18.05;;;3.00;99.90;;;;;;4957649;28;20171;-70
2023/01/21 12:17:09;;;;;;;32.40;17.85;;;3.00;99.90;;;;;;4972743;28;20195;-72
2023/01/21 12:19:57;;;;;;;29.98;17.70;;;3.00;99.90;;;;;;4956837;29;20323;-72
2023/01/21 12:22:41;;;;;;;36.70;18.85;;;3.00;99.90;;;;;;4957413;28;20535;-72
2023/01/21 12:25:41;;;;;;;34.05;18.83;;;3.00;99.90;;;;;;4974907;28;20226;-72
2023/01/21 12:28:46;;;;;;;28.92;16.42;;;3.00;99.90;;;;;;4959230;28;20619;-71
2023/01/21 12:31:41;;;;;;;28.20;17.80;;;3.10;99.90;;;;;;4972550;28;20187;-72
2023/01/21 12:34:36;;;;;;;31.70;16.58;;;3.10;99.90;;;;;;4956527;28;20217;-71
2023/01/21 12:37:12;;;;;;;30.52;17.73;;;3.10;99.90;;;;;;4963251;28;20199;-73
2023/01/21 12:39:50;;;;;;;30.02;16.92;;;3.10;99.90;;;;;;4961213;28;20191;-72
2023/01/21 12:42:26;;;;;;;26.05;16.45;;;3.10;99.90;;;;;;4974769;28;20164;-72
2023/01/21 12:45:00;;;;;;;35.35;17.88;;;3.10;99.90;;;;;;4962119;28;20204;-72
2023/01/21 12:47:35;;;;;;;29.48;16.58;;;3.10;99.90;;;;;;4958128;28;20202;-72
2023/01/21 12:50:46;;;;;;;30.05;15.80;;;3.10;99.90;;;;;;4957997;28;20230;-72
2023/01/21 12:53:41;;;;;;;28.20;15.65;;;3.10;99.90;;;;;;4956097;28;20160;-72
2023/01/21 12:56:20;;;;;;;30.30;16.60;;;3.20;99.90;;;;;;4971574;28;20753;-72
2023/01/21 12:59:04;;;;;;;30.58;18.45;;;3.20;99.90;;;;;;4989749;28;20186;-69
2023/01/21 13:01:53;;;;;;;30.40;16.30;;;3.10;99.90;;;;;;4974855;28;20210;-70
2023/01/21 13:04:48;;;;;;;31.15;16.63;;;3.10;99.90;;;;;;4975971;28;20198;-71
2023/01/21 13:07:22;;;;;;;28.73;16.30;;;3.20;99.90;;;;;;4974147;28;20274;-71
2023/01/21 13:09:59;;;;;;;29.80;16.05;;;3.20;99.90;;;;;;4990606;28;20197;-71